Time;durP1;ratioP1;P1;durP2;ratioP2;P2;SDS_P1;SDS_P2;PMS_P1;PMS_P2;Temp;Humidity;BMP_temperature;BMP_pressure;BME280_temperature;BME280_humidity;BME280_pressure;Samples;Min_cycle;Max_cycle;Signal;HPM_P1;HPM_P2
2022/01/11 00:00:31;;;;;;;7.35;5.35;;;5.10;79.10;;;;;;5026298;28;20031;-85
2022/01/11 00:03:13;;;;;;;7.22;4.90;;;5.10;78.40;;;;;;5052714;28;20028;-85
2022/01/11 00:08:10;;;;;;;8.60;5.47;;;5.00;78.40;;;;;;5056554;28;20044;-85
2022/01/11 00:10:47;;;;;;;7.20;5.18;;;5.00;78.40;;;;;;5043085;28;20036;-86
2022/01/11 00:13:15;;;;;;;7.60;4.90;;;5.10;78.50;;;;;;5044827;28;20039;-85
2022/01/11 00:15:41;;;;;;;8.75;5.75;;;5.00;78.40;;;;;;5052885;28;20017;-86
2022/01/11 00:18:07;;;;;;;7.65;5.55;;;5.00;78.40;;;;;;5045311;28;20039;-85
2022/01/11 00:20:38;;;;;;;8.35;6.13;;;5.00;78.40;;;;;;5062587;28;20021;-85
2022/01/11 00:25:33;;;;;;;8.13;5.78;;;5.00;78.40;;;;;;5028235;28;20037;-86
2022/01/11 00:27:59;;;;;;;7.57;5.45;;;5.00;78.40;;;;;;5065490;28;20044;-86
2022/01/11 00:30:31;;;;;;;7.82;5.65;;;5.00;78.40;;;;;;5042057;28;20103;-86
2022/01/11 00:33:00;;;;;;;8.07;5.28;;;5.00;78.40;;;;;;5040774;28;20032;-89
2022/01/11 00:35:37;;;;;;;8.23;5.95;;;4.90;78.40;;;;;;5028548;28;20017;-85
2022/01/11 00:38:04;;;;;;;7.80;5.25;;;4.90;78.40;;;;;;5046028;28;20043;-85
2022/01/11 00:40:30;;;;;;;7.70;5.35;;;5.00;78.40;;;;;;5042057;28;20028;-86
2022/01/11 00:42:59;;;;;;;8.05;5.40;;;4.90;78.40;;;;;;4994961;28;20504;-85
2022/01/11 00:45:26;;;;;;;8.35;5.28;;;4.90;78.40;;;;;;5039067;28;20029;-87
2022/01/11 00:47:53;;;;;;;8.48;6.15;;;4.90;78.40;;;;;;5030524;28;20111;-85
2022/01/11 00:50:20;;;;;;;8.45;5.53;;;4.90;78.40;;;;;;5056209;28;20021;-86
2022/01/11 00:52:46;;;;;;;7.88;5.57;;;4.90;78.40;;;;;;5045839;28;20029;-87
2022/01/11 00:55:13;;;;;;;8.65;5.85;;;4.90;78.40;;;;;;5027203;28;20358;-86
2022/01/11 00:57:38;;;;;;;8.15;5.70;;;4.90;78.40;;;;;;5028017;28;20024;-85
2022/01/11 01:00:11;;;;;;;9.80;6.40;;;4.90;78.40;;;;;;5046708;28;20043;-86
2022/01/11 01:02:41;;;;;;;8.93;5.80;;;4.90;78.40;;;;;;5029984;28;20031;-85
2022/01/11 01:05:07;;;;;;;8.45;5.65;;;4.90;78.40;;;;;;5067407;28;20017;-86
2022/01/11 01:07:34;;;;;;;7.85;5.68;;;4.90;78.40;;;;;;5025992;28;20481;-85
2022/01/11 01:10:07;;;;;;;9.20;6.13;;;4.90;78.40;;;;;;5044138;28;20132;-89
2022/01/11 01:12:38;;;;;;;7.80;5.35;;;4.90;78.40;;;;;;5053153;28;20056;-85
2022/01/11 01:15:08;;;;;;;8.48;5.97;;;4.90;78.40;;;;;;5030902;28;20038;-86
2022/01/11 01:17:35;;;;;;;8.95;5.72;;;4.80;78.40;;;;;;5035640;28;20021;-88
2022/01/11 01:20:03;;;;;;;8.10;5.45;;;4.90;78.40;;;;;;5031311;28;20350;-90
2022/01/11 01:22:31;;;;;;;8.07;5.80;;;4.80;78.40;;;;;;5045407;28;20021;-86
2022/01/11 01:24:58;;;;;;;8.25;6.10;;;4.80;78.40;;;;;;5034796;28;20044;-87
2022/01/11 01:27:23;;;;;;;8.85;6.20;;;4.80;78.40;;;;;;5036994;28;20492;-87
2022/01/11 01:29:52;;;;;;;8.80;6.05;;;4.80;78.40;;;;;;5026250;28;20025;-85
2022/01/11 01:32:18;;;;;;;7.85;5.78;;;4.80;78.40;;;;;;5038675;28;20031;-85
2022/01/11 01:34:44;;;;;;;7.70;5.28;;;4.80;78.40;;;;;;5010985;28;20033;-85
2022/01/11 01:37:10;;;;;;;8.25;6.10;;;4.80;78.40;;;;;;5040866;28;20039;-85
2022/01/11 01:39:36;;;;;;;8.38;5.85;;;4.80;78.40;;;;;;5047317;28;20078;-86
2022/01/11 01:42:04;;;;;;;9.52;6.13;;;4.80;78.40;;;;;;5028757;28;20025;-85
2022/01/11 01:44:32;;;;;;;8.82;6.00;;;4.80;78.40;;;;;;5021779;28;20037;-85
2022/01/11 01:46:58;;;;;;;8.32;5.90;;;4.80;78.40;;;;;;4995390;28;20451;-85
2022/01/11 01:49:28;;;;;;;8.40;5.72;;;4.80;78.40;;;;;;5002030;28;20029;-86
2022/01/11 01:51:54;;;;;;;8.93;5.97;;;4.80;78.40;;;;;;5021470;28;20036;-84
2022/01/11 01:54:21;;;;;;;7.57;5.47;;;4.80;78.40;;;;;;5022652;28;20100;-86
2022/01/11 01:56:47;;;;;;;7.93;5.68;;;4.80;78.40;;;;;;5023663;28;20134;-84
2022/01/11 01:59:13;;;;;;;7.78;5.68;;;4.80;78.40;;;;;;5007364;28;20056;-85
2022/01/11 02:01:45;;;;;;;9.18;6.40;;;4.80;78.40;;;;;;5037376;28;20501;-85
2022/01/11 02:04:12;;;;;;;8.70;6.03;;;4.70;78.40;;;;;;5025238;28;20556;-85
2022/01/11 02:06:38;;;;;;;9.38;6.45;;;4.70;78.40;;;;;;5014953;28;20025;-84
2022/01/11 02:09:04;;;;;;;9.20;6.10;;;4.80;78.50;;;;;;5030067;28;20025;-86
2022/01/11 02:11:31;;;;;;;9.55;6.18;;;4.70;79.00;;;;;;5026106;28;20029;-86
2022/01/11 02:13:58;;;;;;;9.98;6.07;;;4.70;78.40;;;;;;5015353;28;20112;-86
2022/01/11 02:16:25;;;;;;;8.85;6.22;;;4.70;78.40;;;;;;5007594;28;20021;-85
2022/01/11 02:18:56;;;;;;;8.60;5.43;;;4.70;78.40;;;;;;5021061;28;20025;-85
2022/01/11 02:21:24;;;;;;;8.90;5.90;;;4.70;78.40;;;;;;5020780;28;20539;-85
2022/01/11 02:23:50;;;;;;;9.55;6.00;;;4.70;78.40;;;;;;5006735;28;20488;-86
2022/01/11 02:26:19;;;;;;;9.20;6.00;;;4.70;78.40;;;;;;5028310;28;20470;-85
2022/01/11 02:28:45;;;;;;;8.85;5.97;;;4.70;78.40;;;;;;5012071;28;20127;-85
2022/01/11 02:31:13;;;;;;;8.50;5.80;;;4.70;78.40;;;;;;5042383;28;20025;-85
2022/01/11 02:33:45;;;;;;;8.68;5.90;;;4.70;78.50;;;;;;5024159;28;20017;-85
2022/01/11 02:36:27;;;;;;;8.63;5.88;;;4.70;78.50;;;;;;5023173;28;20020;-85
2022/01/11 02:38:55;;;;;;;8.73;5.40;;;4.70;78.50;;;;;;5016723;28;20029;-85
2022/01/11 02:41:21;;;;;;;8.00;5.47;;;4.70;78.40;;;;;;5015869;28;20030;-85
2022/01/11 02:43:49;;;;;;;8.05;5.75;;;4.70;78.50;;;;;;5024845;28;20079;-85
2022/01/11 02:46:21;;;;;;;8.63;6.07;;;4.70;78.50;;;;;;5031195;28;20436;-84
2022/01/11 02:48:52;;;;;;;8.18;5.75;;;4.70;78.50;;;;;;5044889;28;20041;-84
2022/01/11 02:51:19;;;;;;;9.13;6.03;;;4.70;78.50;;;;;;5027807;28;20076;-85
2022/01/11 02:53:51;;;;;;;9.05;5.97;;;4.70;78.50;;;;;;5035313;28;20041;-85
2022/01/11 02:56:18;;;;;;;9.20;5.85;;;4.70;78.50;;;;;;5043913;28;20052;-85
2022/01/11 02:58:45;;;;;;;8.90;6.03;;;4.60;79.10;;;;;;5045983;28;20450;-84
2022/01/11 03:01:11;;;;;;;10.30;7.28;;;4.70;78.50;;;;;;5019090;28;20037;-86
2022/01/11 03:03:38;;;;;;;9.80;6.53;;;4.60;78.40;;;;;;5038080;28;20033;-85
2022/01/11 03:06:05;;;;;;;8.85;6.25;;;4.60;78.40;;;;;;5057569;28;20033;-88
2022/01/11 03:08:39;;;;;;;9.38;6.00;;;4.70;78.50;;;;;;5043915;28;20037;-87
2022/01/11 03:11:09;;;;;;;8.40;5.78;;;4.60;78.40;;;;;;5067003;28;20036;-85
2022/01/11 03:13:38;;;;;;;8.90;6.30;;;4.60;78.40;;;;;;5034496;28;20389;-85
2022/01/11 03:16:04;;;;;;;8.38;5.80;;;4.60;78.40;;;;;;5001795;28;20029;-84
2022/01/11 03:18:30;;;;;;;9.13;6.55;;;4.60;78.40;;;;;;5036551;28;20121;-85
2022/01/11 03:20:56;;;;;;;8.63;5.82;;;4.60;78.40;;;;;;5055782;28;20453;-86
2022/01/11 03:23:23;;;;;;;9.68;6.18;;;4.60;78.40;;;;;;5060646;28;20484;-85
2022/01/11 03:25:53;;;;;;;9.88;6.50;;;4.60;78.40;;;;;;5008136;28;20033;-85
2022/01/11 03:28:21;;;;;;;9.65;6.40;;;4.60;78.40;;;;;;5052234;28;20029;-85
2022/01/11 03:30:48;;;;;;;9.60;5.95;;;4.60;78.40;;;;;;5045558;28;20075;-88
2022/01/11 03:33:15;;;;;;;9.43;6.35;;;4.60;78.40;;;;;;5030091;28;20064;-85
2022/01/11 03:35:44;;;;;;;9.95;6.47;;;4.60;78.40;;;;;;5028606;28;20013;-84
2022/01/11 03:38:12;;;;;;;9.60;6.68;;;4.60;78.40;;;;;;5043075;28;20082;-84
2022/01/11 03:40:39;;;;;;;10.00;6.90;;;4.60;78.50;;;;;;5048233;28;20035;-84
2022/01/11 03:43:09;;;;;;;10.18;6.88;;;4.60;78.50;;;;;;5047062;28;20107;-84
2022/01/11 03:45:35;;;;;;;8.13;5.82;;;4.60;78.50;;;;;;5062550;28;20037;-86
2022/01/11 03:48:06;;;;;;;10.30;6.72;;;4.60;78.50;;;;;;5058514;28;20040;-84
2022/01/11 03:50:33;;;;;;;8.32;6.45;;;4.60;78.50;;;;;;5048672;28;20079;-85
2022/01/11 03:53:24;;;;;;;9.55;6.65;;;4.60;78.50;;;;;;5051976;28;20095;-84
2022/01/11 03:58:21;;;;;;;10.27;7.07;;;4.60;78.40;;;;;;5062632;28;20070;-86
2022/01/11 04:00:49;;;;;;;10.05;6.75;;;4.60;78.50;;;;;;5066346;28;20052;-85
2022/01/11 04:03:16;;;;;;;10.40;7.28;;;4.60;78.50;;;;;;5027882;28;20469;-87
2022/01/11 04:05:44;;;;;;;9.43;6.53;;;4.60;78.40;;;;;;5021997;28;20021;-88
2022/01/11 04:08:11;;;;;;;10.00;6.47;;;4.60;78.50;;;;;;5019531;28;20120;-85
2022/01/11 04:10:38;;;;;;;10.18;6.85;;;4.60;78.50;;;;;;5060257;28;20085;-84
2022/01/11 04:13:04;;;;;;;9.73;6.40;;;4.60;78.50;;;;;;5020562;28;20028;-84
2022/01/11 04:15:30;;;;;;;10.55;6.90;;;4.60;78.50;;;;;;5055809;28;20031;-85
2022/01/11 04:17:57;;;;;;;9.43;6.60;;;4.60;78.50;;;;;;5044356;28;20028;-84
2022/01/11 04:20:23;;;;;;;11.10;7.40;;;4.60;78.50;;;;;;5022818;28;20101;-84
2022/01/11 04:22:50;;;;;;;9.30;6.13;;;4.60;78.50;;;;;;5020409;28;20033;-85
2022/01/11 04:25:17;;;;;;;9.30;6.32;;;4.60;78.50;;;;;;5037886;28;20060;-85
2022/01/11 04:27:44;;;;;;;10.07;6.70;;;4.60;78.50;;;;;;5038419;28;20033;-85
2022/01/11 04:30:10;;;;;;;9.52;6.30;;;4.60;78.50;;;;;;5036146;28;20052;-85
2022/01/11 04:32:39;;;;;;;10.00;6.68;;;4.60;78.50;;;;;;5036155;28;20079;-84
2022/01/11 04:35:12;;;;;;;10.30;7.03;;;4.60;78.50;;;;;;5044941;28;20017;-86
2022/01/11 04:37:39;;;;;;;10.52;7.25;;;4.50;78.40;;;;;;5015783;28;20037;-84
2022/01/11 04:40:05;;;;;;;10.38;6.90;;;4.60;78.50;;;;;;5020300;28;20021;-85
2022/01/11 04:42:35;;;;;;;10.13;7.10;;;4.50;78.50;;;;;;5041872;28;20087;-82
2022/01/11 04:45:02;;;;;;;9.85;7.03;;;4.60;78.50;;;;;;5056856;28;20135;-85
2022/01/11 04:47:27;;;;;;;9.95;6.97;;;4.50;78.50;;;;;;5048667;28;20033;-84
2022/01/11 04:49:55;;;;;;;10.30;6.97;;;4.60;78.50;;;;;;5039794;28;20480;-85
2022/01/11 04:52:21;;;;;;;9.85;6.97;;;4.60;78.50;;;;;;5030832;28;20032;-86
2022/01/11 04:54:46;;;;;;;9.57;6.45;;;4.50;78.50;;;;;;5039058;28;20545;-87
2022/01/11 04:57:12;;;;;;;9.70;6.63;;;4.50;78.50;;;;;;5062707;28;20041;-84
2022/01/11 04:59:38;;;;;;;9.52;7.20;;;4.50;78.50;;;;;;5008962;28;20068;-84
2022/01/11 05:02:04;;;;;;;10.35;7.20;;;4.50;78.50;;;;;;5037972;28;20028;-84
2022/01/11 05:04:30;;;;;;;10.10;7.35;;;4.50;78.50;;;;;;5018899;28;20043;-84
2022/01/11 05:06:58;;;;;;;11.05;7.28;;;4.50;78.50;;;;;;5036572;28;20037;-84
2022/01/11 05:09:24;;;;;;;11.43;8.10;;;4.50;78.50;;;;;;5037610;28;20017;-85
2022/01/11 05:11:50;;;;;;;11.02;7.22;;;4.50;78.50;;;;;;5017935;28;20707;-84
2022/01/11 05:14:16;;;;;;;12.05;8.00;;;4.50;78.50;;;;;;5009082;28;20033;-84
2022/01/11 05:16:47;;;;;;;11.35;7.65;;;4.50;78.50;;;;;;5010947;28;20032;-84
2022/01/11 05:19:13;;;;;;;10.30;6.70;;;4.50;78.40;;;;;;5051466;28;20052;-85
2022/01/11 05:21:41;;;;;;;10.55;6.88;;;4.50;78.50;;;;;;5052217;28;20021;-85
2022/01/11 05:24:08;;;;;;;10.02;6.72;;;4.50;78.50;;;;;;5030869;28;20017;-85
2022/01/11 05:26:34;;;;;;;9.80;7.03;;;4.50;78.50;;;;;;5038920;28;20033;-85
2022/01/11 05:29:00;;;;;;;10.77;7.00;;;4.50;78.50;;;;;;5037479;28;20037;-85
2022/01/11 05:31:25;;;;;;;10.90;7.32;;;4.50;78.50;;;;;;5003358;28;20375;-84
2022/01/11 05:33:51;;;;;;;10.63;7.28;;;4.50;78.40;;;;;;5030361;28;20434;-82
2022/01/11 05:36:17;;;;;;;9.93;7.13;;;4.50;78.40;;;;;;5035012;28;20515;-83
2022/01/11 05:38:44;;;;;;;10.27;7.13;;;4.50;78.40;;;;;;5018605;28;20040;-86
2022/01/11 05:41:10;;;;;;;10.95;7.82;;;4.50;78.40;;;;;;5034505;28;20037;-87
2022/01/11 05:43:37;;;;;;;9.90;7.22;;;4.50;78.50;;;;;;5057395;28;20516;-84
2022/01/11 05:46:06;;;;;;;11.00;7.55;;;4.50;78.40;;;;;;5038741;28;20170;-84
2022/01/11 05:48:34;;;;;;;9.70;6.68;;;4.50;78.40;;;;;;5029636;28;20084;-85
2022/01/11 05:51:00;;;;;;;10.55;7.38;;;4.50;78.50;;;;;;5046510;28;20033;-84
2022/01/11 05:53:28;;;;;;;10.65;7.35;;;4.50;78.50;;;;;;5065544;28;20033;-85
2022/01/11 05:55:54;;;;;;;10.55;6.78;;;4.50;78.50;;;;;;5043625;28;20029;-85
2022/01/11 05:58:20;;;;;;;11.00;7.30;;;4.50;78.40;;;;;;5029743;28;20499;-84
2022/01/11 06:00:46;;;;;;;9.75;7.15;;;4.50;78.40;;;;;;5046290;28;20024;-80
2022/01/11 06:03:14;;;;;;;10.40;7.05;;;4.50;78.40;;;;;;5035984;28;20515;-83
2022/01/11 06:05:43;;;;;;;10.27;6.80;;;4.50;78.50;;;;;;5015492;28;20048;-84
2022/01/11 06:08:16;;;;;;;10.32;7.15;;;4.40;78.40;;;;;;5050872;28;20056;-83
2022/01/11 06:10:45;;;;;;;10.68;7.13;;;4.40;78.40;;;;;;5026335;28;20107;-83
2022/01/11 06:13:12;;;;;;;10.43;7.03;;;4.40;78.40;;;;;;5047744;28;20044;-81
2022/01/11 06:15:38;;;;;;;10.15;6.97;;;4.40;78.40;;;;;;5056579;28;20052;-81
2022/01/11 06:18:05;;;;;;;9.70;6.93;;;4.40;78.40;;;;;;5051637;28;20052;-82
2022/01/11 06:20:37;;;;;;;9.65;6.90;;;4.40;78.40;;;;;;5049796;28;20342;-82
2022/01/11 06:23:03;;;;;;;10.55;7.32;;;4.40;78.40;;;;;;5031174;28;20235;-80
2022/01/11 06:25:29;;;;;;;9.75;7.05;;;4.40;78.40;;;;;;5029497;28;20029;-84
2022/01/11 06:27:55;;;;;;;10.23;7.07;;;4.40;78.40;;;;;;5021164;28;20040;-84
2022/01/11 06:30:21;;;;;;;9.77;6.75;;;4.40;78.40;;;;;;5042232;28;20394;-83
2022/01/11 06:32:47;;;;;;;10.38;7.47;;;4.40;78.40;;;;;;5029466;28;20040;-82
2022/01/11 06:35:16;;;;;;;10.25;7.10;;;4.30;78.40;;;;;;5045787;28;20025;-82
2022/01/11 06:37:45;;;;;;;10.68;6.85;;;4.40;78.40;;;;;;5029540;28;20039;-82
2022/01/11 06:40:14;;;;;;;9.52;6.68;;;4.30;78.40;;;;;;5029057;28;20112;-80
2022/01/11 06:42:41;;;;;;;9.80;6.70;;;4.30;78.40;;;;;;5022735;28;20039;-84
2022/01/11 06:45:07;;;;;;;10.02;6.78;;;4.30;78.40;;;;;;5042437;28;20055;-83
2022/01/11 06:47:33;;;;;;;10.50;7.55;;;4.30;78.40;;;;;;5029498;28;20040;-82
2022/01/11 06:49:59;;;;;;;11.10;7.30;;;4.30;78.40;;;;;;5029185;28;20583;-80
2022/01/11 06:52:26;;;;;;;10.88;7.82;;;4.30;78.40;;;;;;5039307;28;20469;-82
2022/01/11 06:54:52;;;;;;;9.45;6.65;;;4.30;78.40;;;;;;5016879;28;20025;-82
2022/01/11 06:57:17;;;;;;;11.20;7.40;;;4.30;78.40;;;;;;5033870;28;20029;-82
2022/01/11 06:59:43;;;;;;;10.60;7.28;;;4.30;78.40;;;;;;5054865;28;20136;-82
2022/01/11 07:02:11;;;;;;;9.75;6.78;;;4.30;78.40;;;;;;5063534;28;20040;-82
2022/01/11 07:04:47;;;;;;;10.55;7.30;;;4.30;78.40;;;;;;5019185;28;20039;-82
2022/01/11 07:07:15;;;;;;;10.68;7.53;;;4.30;78.40;;;;;;5056814;28;20041;-81
2022/01/11 07:09:41;;;;;;;10.43;7.18;;;4.30;78.40;;;;;;5010299;28;20463;-83
2022/01/11 07:12:08;;;;;;;10.45;7.50;;;4.30;78.40;;;;;;5057286;28;20059;-83
2022/01/11 07:14:36;;;;;;;11.32;8.35;;;4.30;78.40;;;;;;5065901;28;20013;-83
2022/01/11 07:17:02;;;;;;;9.80;6.97;;;4.30;78.40;;;;;;5044037;28;20485;-83
2022/01/11 07:19:29;;;;;;;11.40;7.82;;;4.30;78.40;;;;;;5039844;28;20037;-83
2022/01/11 07:22:00;;;;;;;10.75;7.03;;;4.30;78.40;;;;;;5029967;28;20533;-83
2022/01/11 07:24:28;;;;;;;10.00;6.80;;;4.30;78.40;;;;;;5013824;28;20039;-83
2022/01/11 07:26:54;;;;;;;12.13;8.23;;;4.30;78.40;;;;;;5035972;28;20513;-84
2022/01/11 07:29:20;;;;;;;11.80;8.07;;;4.30;78.40;;;;;;5053874;28;20031;-84
2022/01/11 07:31:46;;;;;;;11.18;7.60;;;4.30;78.40;;;;;;5032838;28;20024;-83
2022/01/11 07:34:16;;;;;;;11.00;7.40;;;4.30;78.40;;;;;;5025865;28;20436;-83
2022/01/11 07:36:43;;;;;;;11.73;7.75;;;4.30;78.40;;;;;;5021215;28;20030;-82
2022/01/11 07:39:10;;;;;;;11.30;8.23;;;4.30;78.40;;;;;;5045066;28;20399;-83
2022/01/11 07:41:36;;;;;;;12.30;8.40;;;4.30;78.40;;;;;;5012950;28;20033;-88
2022/01/11 07:44:11;;;;;;;13.57;8.63;;;4.30;78.40;;;;;;5017677;28;20476;-83
2022/01/11 07:46:43;;;;;;;11.15;7.93;;;4.30;78.40;;;;;;5053218;28;20382;-86
2022/01/11 07:49:26;;;;;;;10.60;7.78;;;4.20;78.40;;;;;;5031468;28;20079;-84
2022/01/11 07:51:52;;;;;;;13.60;8.27;;;4.20;78.30;;;;;;5013971;28;20045;-84
2022/01/11 07:54:18;;;;;;;12.15;8.40;;;4.20;78.40;;;;;;5021510;28;20029;-84
2022/01/11 07:56:46;;;;;;;11.95;8.32;;;4.20;78.40;;;;;;5025187;28;20033;-84
2022/01/11 07:59:13;;;;;;;10.63;7.72;;;4.20;78.40;;;;;;5045705;28;20028;-84
2022/01/11 08:01:43;;;;;;;10.55;7.32;;;4.20;79.00;;;;;;5034124;28;20025;-84
2022/01/11 08:04:11;;;;;;;11.80;7.78;;;4.20;78.40;;;;;;5048446;28;20491;-85
2022/01/11 08:06:41;;;;;;;11.30;7.95;;;4.20;78.30;;;;;;5030816;28;20029;-83
2022/01/11 08:09:28;;;;;;;10.80;7.78;;;4.20;78.40;;;;;;5041190;28;20485;-83
2022/01/11 08:11:58;;;;;;;11.93;8.60;;;4.20;79.00;;;;;;5033206;28;20478;-83
2022/01/11 08:14:26;;;;;;;10.90;8.07;;;4.20;78.40;;;;;;5018897;28;20124;-84
2022/01/11 08:16:53;;;;;;;11.00;7.60;;;4.20;78.30;;;;;;5023900;28;20347;-84
2022/01/11 08:19:24;;;;;;;11.63;8.20;;;4.20;78.40;;;;;;5031455;28;20031;-80
2022/01/11 08:21:55;;;;;;;12.75;8.07;;;4.20;78.40;;;;;;5023864;28;20072;-85
2022/01/11 08:24:23;;;;;;;12.70;8.77;;;4.20;78.40;;;;;;5018779;28;20029;-85
2022/01/11 08:26:53;;;;;;;12.25;7.78;;;4.20;78.30;;;;;;5026861;28;20436;-86
2022/01/11 08:29:21;;;;;;;10.60;6.93;;;4.20;78.40;;;;;;5064668;28;20489;-84
2022/01/11 08:31:50;;;;;;;10.70;7.50;;;4.20;78.40;;;;;;5041278;28;20024;-85
2022/01/11 08:34:17;;;;;;;11.35;7.78;;;4.20;78.30;;;;;;5025994;28;20025;-84
2022/01/11 08:36:48;;;;;;;11.60;7.88;;;4.20;78.40;;;;;;5040095;28;20017;-84
2022/01/11 08:39:15;;;;;;;13.65;7.93;;;4.20;78.40;;;;;;5021158;28;20037;-85
2022/01/11 08:41:41;;;;;;;11.20;7.40;;;4.20;78.40;;;;;;5023782;28;20048;-84
2022/01/11 08:44:09;;;;;;;10.93;7.75;;;4.20;78.40;;;;;;5045432;28;20094;-84
2022/01/11 08:46:37;;;;;;;11.50;7.47;;;4.20;78.40;;;;;;5037581;28;20033;-85
2022/01/11 08:49:10;;;;;;;10.48;7.10;;;4.20;78.40;;;;;;5053801;28;20442;-83
2022/01/11 08:51:36;;;;;;;11.20;7.68;;;4.20;78.40;;;;;;5029287;28;20030;-84
2022/01/11 08:54:03;;;;;;;10.13;7.60;;;4.20;78.40;;;;;;5021723;28;20059;-84
2022/01/11 08:56:30;;;;;;;10.43;7.47;;;4.20;78.40;;;;;;5031066;28;20028;-86
2022/01/11 08:58:57;;;;;;;12.05;7.95;;;4.20;78.40;;;;;;5027196;28;20037;-84
2022/01/11 09:01:31;;;;;;;10.32;7.32;;;4.20;78.40;;;;;;5051642;28;20029;-85
2022/01/11 09:03:58;;;;;;;10.57;7.40;;;4.20;78.40;;;;;;5030437;28;20029;-85
2022/01/11 09:06:24;;;;;;;9.98;7.40;;;4.20;78.40;;;;;;5027052;28;20104;-84
2022/01/11 09:08:52;;;;;;;10.52;7.35;;;4.20;78.40;;;;;;5048483;28;20406;-85
2022/01/11 09:11:18;;;;;;;10.73;7.18;;;4.20;78.40;;;;;;5027879;28;20021;-87
2022/01/11 09:13:45;;;;;;;10.27;7.32;;;4.20;78.40;;;;;;5030332;28;20036;-88
2022/01/11 09:16:13;;;;;;;11.52;7.88;;;4.20;78.50;;;;;;5046506;28;20036;-84
2022/01/11 09:18:41;;;;;;;10.18;7.00;;;4.20;78.50;;;;;;5042576;28;20041;-83
2022/01/11 09:21:07;;;;;;;9.50;6.65;;;4.30;78.50;;;;;;5019579;28;20025;-86
2022/01/11 09:23:35;;;;;;;10.18;6.65;;;4.20;78.40;;;;;;5031273;28;20061;-87
2022/01/11 09:26:02;;;;;;;9.57;6.95;;;4.20;78.40;;;;;;5071379;28;20107;-86
2022/01/11 09:28:32;;;;;;;9.10;6.70;;;4.30;78.50;;;;;;5049643;28;20036;-86
2022/01/11 09:30:58;;;;;;;9.70;6.85;;;4.20;78.50;;;;;;5059802;28;20017;-87
2022/01/11 09:33:24;;;;;;;9.00;7.15;;;4.30;78.50;;;;;;5032265;28;20124;-85
2022/01/11 09:35:52;;;;;;;10.13;7.40;;;4.30;78.50;;;;;;5047243;28;20024;-85
2022/01/11 09:38:22;;;;;;;8.95;6.63;;;4.30;78.50;;;;;;5062800;28;20501;-86
2022/01/11 09:40:52;;;;;;;9.82;7.20;;;4.30;78.50;;;;;;5029201;28;20071;-84
2022/01/11 09:43:21;;;;;;;8.95;6.55;;;4.30;78.50;;;;;;5048936;28;20041;-84
2022/01/11 09:45:49;;;;;;;10.25;7.63;;;4.30;78.60;;;;;;5025056;28;20052;-88
2022/01/11 09:48:22;;;;;;;9.23;6.80;;;4.30;78.50;;;;;;5041484;28;20181;-85
2022/01/11 09:50:48;;;;;;;8.80;6.60;;;4.30;78.50;;;;;;5029104;28;20035;-89
2022/01/11 09:53:14;;;;;;;10.13;7.10;;;4.40;78.60;;;;;;5030567;28;20146;-84
2022/01/11 09:55:44;;;;;;;8.23;5.88;;;4.30;78.50;;;;;;5059455;28;20044;-85
2022/01/11 09:58:12;;;;;;;10.18;7.05;;;4.40;78.60;;;;;;5037848;28;20040;-85
2022/01/11 10:00:50;;;;;;;8.75;6.85;;;4.40;78.60;;;;;;5040610;28;20021;-85
2022/01/11 10:03:58;;;;;;;8.88;6.47;;;4.40;78.60;;;;;;5020381;28;20036;-87
2022/01/11 10:06:37;;;;;;;10.00;6.40;;;4.40;78.70;;;;;;5044801;28;20048;-86
2022/01/11 10:09:10;;;;;;;10.00;6.38;;;4.40;78.50;;;;;;5018497;28;20071;-89
2022/01/11 10:11:39;;;;;;;9.63;6.13;;;4.40;78.60;;;;;;5037661;28;20382;-83
2022/01/11 10:14:24;;;;;;;8.98;6.38;;;4.40;78.60;;;;;;5026444;28;20374;-84
2022/01/11 10:17:15;;;;;;;9.38;6.60;;;4.50;78.70;;;;;;5030035;28;20029;-84
2022/01/11 10:19:45;;;;;;;8.95;6.03;;;4.50;78.70;;;;;;5048689;28;20052;-84
2022/01/11 10:22:15;;;;;;;9.63;6.50;;;4.50;78.60;;;;;;5046864;28;20024;-86
2022/01/11 10:24:47;;;;;;;10.52;6.63;;;4.50;78.70;;;;;;5055208;28;20029;-86
2022/01/11 10:27:19;;;;;;;8.50;6.15;;;4.50;78.70;;;;;;5047334;28;20094;-87
2022/01/11 10:29:53;;;;;;;10.10;6.38;;;4.50;78.60;;;;;;5045183;28;20047;-88
2022/01/11 10:32:37;;;;;;;8.55;5.97;;;4.50;78.70;;;;;;5060728;28;20172;-85
2022/01/11 10:35:40;;;;;;;7.95;6.22;;;4.50;78.70;;;;;;5049785;28;20025;-93
2022/01/11 10:38:07;;;;;;;9.65;6.13;;;4.60;78.70;;;;;;5035037;28;20090;-88
2022/01/11 10:40:42;;;;;;;8.13;5.82;;;4.60;78.60;;;;;;5031780;28;20112;-93
2022/01/11 10:43:12;;;;;;;9.88;6.63;;;4.60;78.70;;;;;;5058060;28;20087;-93
2022/01/11 10:45:42;;;;;;;9.65;6.65;;;4.60;78.70;;;;;;5067738;28;20025;-93
2022/01/11 10:48:12;;;;;;;9.43;6.47;;;4.60;78.70;;;;;;5031572;28;20187;-90
2022/01/11 10:50:42;;;;;;;8.52;6.07;;;4.70;78.70;;;;;;5071226;28;20035;-90
2022/01/11 10:53:18;;;;;;;9.13;6.07;;;4.70;78.70;;;;;;5030459;28;20017;-89
2022/01/11 10:55:50;;;;;;;9.77;5.67;;;4.70;78.70;;;;;;5063907;28;20029;-90
2022/01/11 10:58:16;;;;;;;9.35;5.90;;;4.70;78.70;;;;;;5050282;28;20039;-90
2022/01/11 11:00:51;;;;;;;9.60;6.40;;;4.80;78.70;;;;;;5067097;28;20417;-90
2022/01/11 11:03:21;;;;;;;8.83;6.13;;;4.80;78.80;;;;;;5051924;28;20159;-90
2022/01/11 11:06:05;;;;;;;9.23;6.28;;;4.80;78.70;;;;;;5046818;28;20092;-88
2022/01/11 11:08:35;;;;;;;8.43;6.00;;;4.80;78.60;;;;;;5050944;28;20477;-87
2022/01/11 11:11:20;;;;;;;8.30;5.90;;;4.80;78.70;;;;;;5042097;28;20024;-88
2022/01/11 11:13:58;;;;;;;8.90;5.70;;;4.80;78.70;;;;;;5047045;28;20036;-89
2022/01/11 11:16:28;;;;;;;10.50;6.40;;;4.80;78.70;;;;;;5048447;28;20528;-88
2022/01/11 11:19:01;;;;;;;10.05;6.47;;;4.90;78.70;;;;;;5024406;28;20107;-85
2022/01/11 11:21:39;;;;;;;7.75;5.57;;;4.90;78.70;;;;;;5039936;28;20107;-84
2022/01/11 11:24:07;;;;;;;9.15;6.38;;;4.90;78.70;;;;;;5027686;28;20115;-84
2022/01/11 11:26:37;;;;;;;9.55;6.05;;;4.90;78.70;;;;;;5047309;28;20017;-85
2022/01/11 11:29:07;;;;;;;8.95;6.22;;;4.90;78.70;;;;;;5037277;28;20056;-86
2022/01/11 11:31:34;;;;;;;8.55;5.97;;;4.90;78.70;;;;;;5054705;28;20051;-88
2022/01/11 11:34:01;;;;;;;9.82;6.63;;;4.90;78.70;;;;;;5046765;28;20470;-86
2022/01/11 11:36:28;;;;;;;9.07;5.95;;;5.00;78.80;;;;;;5063066;28;20067;-85
2022/01/11 11:39:13;;;;;;;8.85;5.82;;;5.00;78.80;;;;;;5013067;28;20481;-84
2022/01/11 11:41:43;;;;;;;10.82;6.03;;;5.00;78.80;;;;;;5054786;28;20028;-85
2022/01/11 11:44:24;;;;;;;8.93;6.05;;;5.00;79.30;;;;;;5025136;28;20044;-89
2022/01/11 11:46:59;;;;;;;9.77;6.25;;;5.00;78.80;;;;;;5029192;28;20036;-86
2022/01/11 11:49:55;;;;;;;9.68;6.32;;;5.00;78.70;;;;;;5026582;28;20036;-83
2022/01/11 11:52:50;;;;;;;;;;;5.10;79.00;;;;;;5034829;28;20040;-87
2022/01/11 11:55:23;;;;;;;8.50;5.80;;;5.10;78.70;;;;;;5036386;28;19950;-86
2022/01/11 11:57:53;;;;;;;8.02;5.00;;;5.00;78.60;;;;;;5049036;28;20025;-87
2022/01/11 12:00:31;;;;;;;8.38;5.82;;;5.10;78.80;;;;;;5047430;28;20021;-87
2022/01/11 12:03:05;;;;;;;8.80;5.60;;;5.10;78.90;;;;;;5069954;28;20416;-85
2022/01/11 12:05:36;;;;;;;9.15;5.90;;;5.10;78.80;;;;;;5024454;28;20485;-86
2022/01/11 12:08:53;;;;;;;10.70;6.57;;;5.10;78.80;;;;;;5033755;28;20480;-85
2022/01/11 12:11:19;;;;;;;8.57;5.72;;;5.20;79.00;;;;;;5050238;28;20041;-87
2022/01/11 12:13:55;;;;;;;8.98;5.55;;;5.20;78.80;;;;;;5042366;28;20107;-87
2022/01/11 12:16:25;;;;;;;9.00;5.47;;;5.20;78.90;;;;;;5050013;28;20035;-86
2022/01/11 12:18:56;;;;;;;8.93;5.65;;;5.20;78.80;;;;;;5063585;28;20037;-86
2022/01/11 12:21:23;;;;;;;8.70;5.85;;;5.30;78.90;;;;;;5073593;28;20033;-86
2022/01/11 12:24:00;;;;;;;8.45;6.05;;;5.30;78.90;;;;;;5023052;28;20044;-85
2022/01/11 12:26:28;;;;;;;8.85;6.00;;;5.30;78.90;;;;;;5045604;28;20062;-86
2022/01/11 12:29:10;;;;;;;9.95;6.20;;;5.40;78.90;;;;;;5057715;28;20030;-86
2022/01/11 12:31:37;;;;;;;8.20;5.88;;;5.40;78.90;;;;;;5021112;28;20478;-86
2022/01/11 12:34:06;;;;;;;8.93;6.03;;;5.40;78.90;;;;;;5042008;28;20031;-86
2022/01/11 12:36:54;;;;;;;9.25;5.97;;;5.40;78.90;;;;;;5037181;28;20090;-86
2022/01/11 12:39:23;;;;;;;8.23;5.65;;;5.50;79.00;;;;;;5038377;28;20391;-86
2022/01/11 12:41:49;;;;;;;8.43;5.63;;;5.40;78.80;;;;;;5044810;28;20021;-87
2022/01/11 12:47:08;;;;;;;8.40;5.65;;;5.50;79.00;;;;;;5028713;28;20049;-87
2022/01/11 12:49:40;;;;;;;8.80;5.63;;;5.50;78.90;;;;;;5038882;28;20082;-86
2022/01/11 12:52:10;;;;;;;8.95;5.38;;;5.50;78.90;;;;;;5037771;28;20048;-86
2022/01/11 12:54:47;;;;;;;9.10;5.80;;;5.50;78.80;;;;;;5012115;28;20489;-86
2022/01/11 12:57:22;;;;;;;8.98;6.00;;;5.50;78.80;;;;;;5044305;28;20124;-86
2022/01/11 12:59:54;;;;;;;9.50;6.55;;;5.60;78.90;;;;;;5056445;28;20120;-85
2022/01/11 13:02:23;;;;;;;9.13;6.28;;;5.60;78.90;;;;;;5063776;28;20029;-85
2022/01/11 13:04:53;;;;;;;9.20;5.85;;;5.60;78.90;;;;;;5061695;28;20116;-87
2022/01/11 13:07:20;;;;;;;9.05;5.75;;;5.60;78.90;;;;;;5026583;28;20076;-86
2022/01/11 13:09:57;;;;;;;8.88;6.07;;;5.60;78.90;;;;;;5042067;28;20029;-85
2022/01/11 13:12:34;;;;;;;9.80;6.07;;;5.70;78.90;;;;;;5043797;28;20025;-85
2022/01/11 13:15:37;;;;;;;8.95;5.63;;;5.70;78.90;;;;;;5045042;28;20112;-85